sensor_id;sensor_type;location;lat;lon;timestamp;temperature;humidity
1461;DHT22;724;49.910;12.530;2023-07-08T00:00:15;13.10;1.00
1461;DHT22;724;49.910;12.530;2023-07-08T00:02:42;13.10;1.00
1461;DHT22;724;49.910;12.530;2023-07-08T00:05:09;13.10;1.00
1461;DHT22;724;49.910;12.530;2023-07-08T00:07:37;13.10;1.00
1461;DHT22;724;49.910;12.530;2023-07-08T00:10:13;13.00;1.00
1461;DHT22;724;49.910;12.530;2023-07-08T00:12:40;13.00;1.00
1461;DHT22;724;49.910;12.530;2023-07-08T00:15:08;13.00;1.00
1461;DHT22;724;49.910;12.530;2023-07-08T00:17:35;13.00;1.00
1461;DHT22;724;49.910;12.530;2023-07-08T00:20:12;12.90;1.00
1461;DHT22;724;49.910;12.530;2023-07-08T00:22:40;12.90;1.00
1461;DHT22;724;49.910;12.530;2023-07-08T00:25:07;12.80;1.00
1461;DHT22;724;49.910;12.530;2023-07-08T00:27:35;12.80;1.00
1461;DHT22;724;49.910;12.530;2023-07-08T00:30:17;12.70;1.00
1461;DHT22;724;49.910;12.530;2023-07-08T00:32:44;12.80;1.00
1461;DHT22;724;49.910;12.530;2023-07-08T00:35:10;12.80;1.00
1461;DHT22;724;49.910;12.530;2023-07-08T00:37:37;12.80;1.00
1461;DHT22;724;49.910;12.530;2023-07-08T00:40:13;12.70;1.00
1461;DHT22;724;49.910;12.530;2023-07-08T00:42:44;12.60;1.00
1461;DHT22;724;49.910;12.530;2023-07-08T00:45:18;12.60;8.40
1461;DHT22;724;49.910;12.530;2023-07-08T00:47:47;12.60;16.10
1461;DHT22;724;49.910;12.530;2023-07-08T00:50:15;12.60;33.50
1461;DHT22;724;49.910;12.530;2023-07-08T00:52:42;12.60;43.30
1461;DHT22;724;49.910;12.530;2023-07-08T00:55:10;12.50;55.00
1461;DHT22;724;49.910;12.530;2023-07-08T00:57:40;12.50;74.00
1461;DHT22;724;49.910;12.530;2023-07-08T01:00:12;12.50;77.80
1461;DHT22;724;49.910;12.530;2023-07-08T01:02:45;12.40;88.70
1461;DHT22;724;49.910;12.530;2023-07-08T01:05:15;12.50;94.00
1461;DHT22;724;49.910;12.530;2023-07-08T01:07:46;12.50;99.90
1461;DHT22;724;49.910;12.530;2023-07-08T01:10:18;12.40;99.90
1461;DHT22;724;49.910;12.530;2023-07-08T01:12:49;12.30;99.90
1461;DHT22;724;49.910;12.530;2023-07-08T01:15:21;12.30;99.90
1461;DHT22;724;49.910;12.530;2023-07-08T01:17:50;12.30;99.90
1461;DHT22;724;49.910;12.530;2023-07-08T01:20:19;12.30;99.90
1461;DHT22;724;49.910;12.530;2023-07-08T01:22:47;12.30;99.90
1461;DHT22;724;49.910;12.530;2023-07-08T01:25:14;12.20;99.90
1461;DHT22;724;49.910;12.530;2023-07-08T01:27:44;12.20;99.90
1461;DHT22;724;49.910;12.530;2023-07-08T01:30:14;12.10;99.90
1461;DHT22;724;49.910;12.530;2023-07-08T01:32:46;12.10;99.90
1461;DHT22;724;49.910;12.530;2023-07-08T01:35:15;12.10;99.90
1461;DHT22;724;49.910;12.530;2023-07-08T01:37:46;12.10;99.90
1461;DHT22;724;49.910;12.530;2023-07-08T01:40:24;12.10;99.90
1461;DHT22;724;49.910;12.530;2023-07-08T01:42:51;12.00;99.90
1461;DHT22;724;49.910;12.530;2023-07-08T01:45:21;12.00;99.90
1461;DHT22;724;49.910;12.530;2023-07-08T01:47:51;12.00;99.90
1461;DHT22;724;49.910;12.530;2023-07-08T01:50:20;11.90;99.90
1461;DHT22;724;49.910;12.530;2023-07-08T01:52:48;11.90;99.90
1461;DHT22;724;49.910;12.530;2023-07-08T01:55:21;11.80;99.90
1461;DHT22;724;49.910;12.530;2023-07-08T01:57:48;11.80;99.90
1461;DHT22;724;49.910;12.530;2023-07-08T02:00:14;11.90;99.90
1461;DHT22;724;49.910;12.530;2023-07-08T02:02:41;11.90;99.90
1461;DHT22;724;49.910;12.530;2023-07-08T02:05:08;11.90;99.90
1461;DHT22;724;49.910;12.530;2023-07-08T02:07:35;11.90;99.90
1461;DHT22;724;49.910;12.530;2023-07-08T02:10:01;11.90;99.90
1461;DHT22;724;49.910;12.530;2023-07-08T02:12:29;11.80;99.90
1461;DHT22;724;49.910;12.530;2023-07-08T02:14:57;11.80;99.90
1461;DHT22;724;49.910;12.530;2023-07-08T02:17:24;11.80;99.90
1461;DHT22;724;49.910;12.530;2023-07-08T02:19:50;11.80;99.90
1461;DHT22;724;49.910;12.530;2023-07-08T02:22:17;11.70;99.90
1461;DHT22;724;49.910;12.530;2023-07-08T02:24:44;11.70;99.90
1461;DHT22;724;49.910;12.530;2023-07-08T02:27:10;11.80;99.90
1461;DHT22;724;49.910;12.530;2023-07-08T02:29:38;11.80;99.90
1461;DHT22;724;49.910;12.530;2023-07-08T02:32:06;11.70;99.90
1461;DHT22;724;49.910;12.530;2023-07-08T02:34:34;11.70;99.90
1461;DHT22;724;49.910;12.530;2023-07-08T02:37:01;11.70;99.90
1461;DHT22;724;49.910;12.530;2023-07-08T02:39:28;11.70;99.90
1461;DHT22;724;49.910;12.530;2023-07-08T02:41:55;11.70;99.90
1461;DHT22;724;49.910;12.530;2023-07-08T02:44:22;11.70;99.90
1461;DHT22;724;49.910;12.530;2023-07-08T02:46:50;11.70;99.90
1461;DHT22;724;49.910;12.530;2023-07-08T02:49:17;11.70;99.90
1461;DHT22;724;49.910;12.530;2023-07-08T02:51:43;11.70;99.90
1461;DHT22;724;49.910;12.530;2023-07-08T02:54:10;11.70;99.90
1461;DHT22;724;49.910;12.530;2023-07-08T02:56:37;11.60;99.90
1461;DHT22;724;49.910;12.530;2023-07-08T02:59:04;11.70;99.90
1461;DHT22;724;49.910;12.530;2023-07-08T03:01:31;11.60;99.90
1461;DHT22;724;49.910;12.530;2023-07-08T03:04:08;11.60;99.90
1461;DHT22;724;49.910;12.530;2023-07-08T03:06:38;11.50;99.90
1461;DHT22;724;49.910;12.530;2023-07-08T03:09:05;11.60;99.90
1461;DHT22;724;49.910;12.530;2023-07-08T03:11:32;11.60;99.90
1461;DHT22;724;49.910;12.530;2023-07-08T03:13:58;11.60;99.90
1461;DHT22;724;49.910;12.530;2023-07-08T03:16:25;11.60;99.90
1461;DHT22;724;49.910;12.530;2023-07-08T03:18:52;11.50;99.90
1461;DHT22;724;49.910;12.530;2023-07-08T03:21:20;11.50;99.90
1461;DHT22;724;49.910;12.530;2023-07-08T03:23:48;11.60;99.90
1461;DHT22;724;49.910;12.530;2023-07-08T03:26:16;11.50;99.90
1461;DHT22;724;49.910;12.530;2023-07-08T03:28:45;11.60;99.90
1461;DHT22;724;49.910;12.530;2023-07-08T03:31:12;11.60;99.90
1461;DHT22;724;49.910;12.530;2023-07-08T03:33:38;11.40;99.90
1461;DHT22;724;49.910;12.530;2023-07-08T03:36:10;11.50;99.90
1461;DHT22;724;49.910;12.530;2023-07-08T03:38:39;11.50;99.90
1461;DHT22;724;49.910;12.530;2023-07-08T03:41:06;11.60;99.90
1461;DHT22;724;49.910;12.530;2023-07-08T03:43:32;11.70;99.90
1461;DHT22;724;49.910;12.530;2023-07-08T03:45:59;11.80;99.90
1461;DHT22;724;49.910;12.530;2023-07-08T03:48:26;11.90;99.90
1461;DHT22;724;49.910;12.530;2023-07-08T03:50:53;11.90;99.90
1461;DHT22;724;49.910;12.530;2023-07-08T03:53:19;12.00;99.90
1461;DHT22;724;49.910;12.530;2023-07-08T03:55:47;12.10;99.90
1461;DHT22;724;49.910;12.530;2023-07-08T03:58:14;12.20;99.90
1461;DHT22;724;49.910;12.530;2023-07-08T04:00:41;12.10;99.90
1461;DHT22;724;49.910;12.530;2023-07-08T04:03:10;12.10;99.90
1461;DHT22;724;49.910;12.530;2023-07-08T04:05:37;12.00;99.90
1461;DHT22;724;49.910;12.530;2023-07-08T04:08:04;12.20;99.90
1461;DHT22;724;49.910;12.530;2023-07-08T04:10:31;12.30;99.90
1461;DHT22;724;49.910;12.530;2023-07-08T04:12:59;12.50;99.90
1461;DHT22;724;49.910;12.530;2023-07-08T04:15:26;12.60;99.90
1461;DHT22;724;49.910;12.530;2023-07-08T04:17:54;12.60;99.90
1461;DHT22;724;49.910;12.530;2023-07-08T04:20:22;12.70;99.90
1461;DHT22;724;49.910;12.530;2023-07-08T04:22:49;12.80;99.90
1461;DHT22;724;49.910;12.530;2023-07-08T04:25:17;12.80;99.90
1461;DHT22;724;49.910;12.530;2023-07-08T04:27:44;12.90;99.90
1461;DHT22;724;49.910;12.530;2023-07-08T04:30:20;13.00;99.90
1461;DHT22;724;49.910;12.530;2023-07-08T04:32:47;13.00;99.90
1461;DHT22;724;49.910;12.530;2023-07-08T04:35:15;13.10;99.90
1461;DHT22;724;49.910;12.530;2023-07-08T04:37:41;13.10;99.90
1461;DHT22;724;49.910;12.530;2023-07-08T04:40:16;13.10;99.90
1461;DHT22;724;49.910;12.530;2023-07-08T04:42:43;13.20;99.90
1461;DHT22;724;49.910;12.530;2023-07-08T04:45:17;13.20;99.90
1461;DHT22;724;49.910;12.530;2023-07-08T04:47:44;13.20;99.90
1461;DHT22;724;49.910;12.530;2023-07-08T04:50:12;13.30;99.90
1461;DHT22;724;49.910;12.530;2023-07-08T04:52:39;13.30;99.90
1461;DHT22;724;49.910;12.530;2023-07-08T04:55:06;13.40;99.90
1461;DHT22;724;49.910;12.530;2023-07-08T04:57:35;13.60;99.90
1461;DHT22;724;49.910;12.530;2023-07-08T05:00:02;13.80;99.90
1461;DHT22;724;49.910;12.530;2023-07-08T05:02:34;14.00;99.90
1461;DHT22;724;49.910;12.530;2023-07-08T05:05:01;14.30;99.90
1461;DHT22;724;49.910;12.530;2023-07-08T05:07:28;14.70;99.90
1461;DHT22;724;49.910;12.530;2023-07-08T05:09:54;14.90;99.90
1461;DHT22;724;49.910;12.530;2023-07-08T05:12:21;15.10;99.90
1461;DHT22;724;49.910;12.530;2023-07-08T05:14:48;15.30;99.90
1461;DHT22;724;49.910;12.530;2023-07-08T05:17:15;15.70;99.90
1461;DHT22;724;49.910;12.530;2023-07-08T05:19:43;16.20;99.90
1461;DHT22;724;49.910;12.530;2023-07-08T05:22:11;16.60;99.90
1461;DHT22;724;49.910;12.530;2023-07-08T05:24:38;17.10;99.90
1461;DHT22;724;49.910;12.530;2023-07-08T05:27:04;17.40;99.90
1461;DHT22;724;49.910;12.530;2023-07-08T05:29:31;17.80;99.90
1461;DHT22;724;49.910;12.530;2023-07-08T05:31:58;17.80;99.90
1461;DHT22;724;49.910;12.530;2023-07-08T05:34:25;18.00;99.90
1461;DHT22;724;49.910;12.530;2023-07-08T05:36:53;18.20;99.90
1461;DHT22;724;49.910;12.530;2023-07-08T05:39:19;18.30;99.90
1461;DHT22;724;49.910;12.530;2023-07-08T05:41:46;18.30;99.90
1461;DHT22;724;49.910;12.530;2023-07-08T05:44:13;18.40;99.90
1461;DHT22;724;49.910;12.530;2023-07-08T05:46:40;18.60;99.90
1461;DHT22;724;49.910;12.530;2023-07-08T05:49:06;18.50;99.90
1461;DHT22;724;49.910;12.530;2023-07-08T05:51:34;18.70;99.90
1461;DHT22;724;49.910;12.530;2023-07-08T05:54:02;19.00;99.90
1461;DHT22;724;49.910;12.530;2023-07-08T05:56:29;18.90;94.40
1461;DHT22;724;49.910;12.530;2023-07-08T05:58:56;18.90;83.30
1461;DHT22;724;49.910;12.530;2023-07-08T06:01:23;19.00;74.00
1461;DHT22;724;49.910;12.530;2023-07-08T06:03:49;19.40;68.70
1461;DHT22;724;49.910;12.530;2023-07-08T06:06:16;19.30;47.50
1461;DHT22;724;49.910;12.530;2023-07-08T06:08:43;19.70;49.70
1461;DHT22;724;49.910;12.530;2023-07-08T06:11:11;20.30;44.60
1461;DHT22;724;49.910;12.530;2023-07-08T06:13:38;20.50;36.70
1461;DHT22;724;49.910;12.530;2023-07-08T06:16:05;20.30;20.80
1461;DHT22;724;49.910;12.530;2023-07-08T06:18:32;20.30;12.70
1461;DHT22;724;49.910;12.530;2023-07-08T06:20:59;20.40;5.20
1461;DHT22;724;49.910;12.530;2023-07-08T06:23:27;20.60;9.60
1461;DHT22;724;49.910;12.530;2023-07-08T06:25:54;21.30;3.30
1461;DHT22;724;49.910;12.530;2023-07-08T06:28:23;21.20;1.00
1461;DHT22;724;49.910;12.530;2023-07-08T06:30:50;20.80;1.00
1461;DHT22;724;49.910;12.530;2023-07-08T06:33:16;20.60;1.00
1461;DHT22;724;49.910;12.530;2023-07-08T06:35:43;20.80;1.00
1461;DHT22;724;49.910;12.530;2023-07-08T06:38:10;21.60;1.00
1461;DHT22;724;49.910;12.530;2023-07-08T06:40:37;21.00;1.00
1461;DHT22;724;49.910;12.530;2023-07-08T06:43:04;21.60;1.00
1461;DHT22;724;49.910;12.530;2023-07-08T06:45:32;21.60;1.00
1461;DHT22;724;49.910;12.530;2023-07-08T06:47:59;21.50;1.00
1461;DHT22;724;49.910;12.530;2023-07-08T06:50:26;21.70;1.00
1461;DHT22;724;49.910;12.530;2023-07-08T06:52:52;22.20;1.00
1461;DHT22;724;49.910;12.530;2023-07-08T06:55:19;22.20;1.00
1461;DHT22;724;49.910;12.530;2023-07-08T06:57:46;23.10;1.00
1461;DHT22;724;49.910;12.530;2023-07-08T07:00:14;23.30;1.00
1461;DHT22;724;49.910;12.530;2023-07-08T07:02:42;22.60;1.00
1461;DHT22;724;49.910;12.530;2023-07-08T07:05:09;22.10;1.00
1461;DHT22;724;49.910;12.530;2023-07-08T07:07:36;23.00;1.00
1461;DHT22;724;49.910;12.530;2023-07-08T07:10:03;23.00;1.00
1461;DHT22;724;49.910;12.530;2023-07-08T07:12:31;23.40;1.00
1461;DHT22;724;49.910;12.530;2023-07-08T07:14:58;23.70;1.00
1461;DHT22;724;49.910;12.530;2023-07-08T07:17:24;23.50;1.00
1461;DHT22;724;49.910;12.530;2023-07-08T07:19:53;23.90;1.00
1461;DHT22;724;49.910;12.530;2023-07-08T07:22:21;24.10;1.00
1461;DHT22;724;49.910;12.530;2023-07-08T07:24:48;23.90;1.00
1461;DHT22;724;49.910;12.530;2023-07-08T07:27:15;23.90;1.00
1461;DHT22;724;49.910;12.530;2023-07-08T07:29:43;24.00;1.00
1461;DHT22;724;49.910;12.530;2023-07-08T07:32:10;24.20;1.00
1461;DHT22;724;49.910;12.530;2023-07-08T07:34:37;24.40;1.00
1461;DHT22;724;49.910;12.530;2023-07-08T07:37:06;24.20;1.00
1461;DHT22;724;49.910;12.530;2023-07-08T07:39:33;24.50;1.00
1461;DHT22;724;49.910;12.530;2023-07-08T07:42:00;24.20;1.00
1461;DHT22;724;49.910;12.530;2023-07-08T07:44:26;24.70;1.00
1461;DHT22;724;49.910;12.530;2023-07-08T07:46:53;25.00;1.00
1461;DHT22;724;49.910;12.530;2023-07-08T07:49:20;24.50;1.00
1461;DHT22;724;49.910;12.530;2023-07-08T07:51:47;26.10;1.00
1461;DHT22;724;49.910;12.530;2023-07-08T07:54:16;26.60;1.00
1461;DHT22;724;49.910;12.530;2023-07-08T07:56:42;26.80;1.00
1461;DHT22;724;49.910;12.530;2023-07-08T07:59:10;26.50;1.00
1461;DHT22;724;49.910;12.530;2023-07-08T08:01:37;26.10;1.00
1461;DHT22;724;49.910;12.530;2023-07-08T08:04:04;25.10;1.00
1461;DHT22;724;49.910;12.530;2023-07-08T08:06:31;25.60;1.00
1461;DHT22;724;49.910;12.530;2023-07-08T08:08:57;25.90;1.00
1461;DHT22;724;49.910;12.530;2023-07-08T08:11:26;25.30;1.00
1461;DHT22;724;49.910;12.530;2023-07-08T08:13:53;25.40;1.00
1461;DHT22;724;49.910;12.530;2023-07-08T08:16:20;25.90;1.00
1461;DHT22;724;49.910;12.530;2023-07-08T08:18:47;25.70;1.00
1461;DHT22;724;49.910;12.530;2023-07-08T08:21:13;26.50;1.00
1461;DHT22;724;49.910;12.530;2023-07-08T08:23:41;24.50;1.00
1461;DHT22;724;49.910;12.530;2023-07-08T08:26:08;25.10;1.00
1461;DHT22;724;49.910;12.530;2023-07-08T08:28:36;26.00;1.00
1461;DHT22;724;49.910;12.530;2023-07-08T08:31:03;25.70;1.00
1461;DHT22;724;49.910;12.530;2023-07-08T08:33:29;25.80;1.00
1461;DHT22;724;49.910;12.530;2023-07-08T08:35:56;26.10;1.00
1461;DHT22;724;49.910;12.530;2023-07-08T08:38:23;25.70;1.00
1461;DHT22;724;49.910;12.530;2023-07-08T08:40:50;25.90;1.00
1461;DHT22;724;49.910;12.530;2023-07-08T08:43:20;25.20;1.00
1461;DHT22;724;49.910;12.530;2023-07-08T08:45:55;25.70;1.00
1461;DHT22;724;49.910;12.530;2023-07-08T08:48:25;25.40;1.00
1461;DHT22;724;49.910;12.530;2023-07-08T08:50:56;25.80;1.00
1461;DHT22;724;49.910;12.530;2023-07-08T08:53:26;26.00;1.00
1461;DHT22;724;49.910;12.530;2023-07-08T08:55:57;25.70;1.00
1461;DHT22;724;49.910;12.530;2023-07-08T08:58:33;26.00;1.00
1461;DHT22;724;49.910;12.530;2023-07-08T09:01:06;26.30;1.00
1461;DHT22;724;49.910;12.530;2023-07-08T09:03:42;26.50;1.00
1461;DHT22;724;49.910;12.530;2023-07-08T09:06:14;27.00;1.00
1461;DHT22;724;49.910;12.530;2023-07-08T09:08:42;26.10;1.00
1461;DHT22;724;49.910;12.530;2023-07-08T09:11:26;27.10;1.00
1461;DHT22;724;49.910;12.530;2023-07-08T09:13:54;26.60;1.00
1461;DHT22;724;49.910;12.530;2023-07-08T09:16:29;26.90;1.00
1461;DHT22;724;49.910;12.530;2023-07-08T09:19:00;26.90;1.00
1461;DHT22;724;49.910;12.530;2023-07-08T09:21:33;27.20;1.00
1461;DHT22;724;49.910;12.530;2023-07-08T09:24:08;26.20;1.00
1461;DHT22;724;49.910;12.530;2023-07-08T09:26:36;25.70;1.00
1461;DHT22;724;49.910;12.530;2023-07-08T09:29:08;25.80;1.00
1461;DHT22;724;49.910;12.530;2023-07-08T09:31:38;25.50;1.00
1461;DHT22;724;49.910;12.530;2023-07-08T09:34:10;25.30;1.00
1461;DHT22;724;49.910;12.530;2023-07-08T09:36:40;25.10;1.00
1461;DHT22;724;49.910;12.530;2023-07-08T09:39:10;26.00;1.00
1461;DHT22;724;49.910;12.530;2023-07-08T09:41:38;25.40;1.00
1461;DHT22;724;49.910;12.530;2023-07-08T09:44:15;25.50;1.00
1461;DHT22;724;49.910;12.530;2023-07-08T09:46:44;26.70;1.00
1461;DHT22;724;49.910;12.530;2023-07-08T09:49:20;26.10;1.00
1461;DHT22;724;49.910;12.530;2023-07-08T09:51:48;26.60;1.00
1461;DHT22;724;49.910;12.530;2023-07-08T09:54:16;27.10;1.00
1461;DHT22;724;49.910;12.530;2023-07-08T09:56:54;27.00;1.00
1461;DHT22;724;49.910;12.530;2023-07-08T09:59:27;27.60;1.00
1461;DHT22;724;49.910;12.530;2023-07-08T10:01:59;28.10;1.00
1461;DHT22;724;49.910;12.530;2023-07-08T10:04:26;27.30;1.00
1461;DHT22;724;49.910;12.530;2023-07-08T10:06:55;27.10;1.00
1461;DHT22;724;49.910;12.530;2023-07-08T10:09:24;26.90;1.00
1461;DHT22;724;49.910;12.530;2023-07-08T10:11:55;27.20;1.00
1461;DHT22;724;49.910;12.530;2023-07-08T10:14:27;27.20;1.00
1461;DHT22;724;49.910;12.530;2023-07-08T10:16:56;28.70;1.00
1461;DHT22;724;49.910;12.530;2023-07-08T10:19:23;29.60;1.00
1461;DHT22;724;49.910;12.530;2023-07-08T10:21:58;27.80;1.00
1461;DHT22;724;49.910;12.530;2023-07-08T10:24:40;27.40;1.00
1461;DHT22;724;49.910;12.530;2023-07-08T10:27:15;27.10;1.00
1461;DHT22;724;49.910;12.530;2023-07-08T10:29:52;26.00;1.00
1461;DHT22;724;49.910;12.530;2023-07-08T10:32:30;26.50;1.00
1461;DHT22;724;49.910;12.530;2023-07-08T10:35:09;26.90;1.00
1461;DHT22;724;49.910;12.530;2023-07-08T10:37:47;26.90;1.00
1461;DHT22;724;49.910;12.530;2023-07-08T10:40:27;27.70;1.00
1461;DHT22;724;49.910;12.530;2023-07-08T10:43:12;27.40;1.00
1461;DHT22;724;49.910;12.530;2023-07-08T10:45:49;27.20;1.00
1461;DHT22;724;49.910;12.530;2023-07-08T10:48:38;26.30;1.00
1461;DHT22;724;49.910;12.530;2023-07-08T10:51:18;26.90;1.00
1461;DHT22;724;49.910;12.530;2023-07-08T10:54:00;26.60;1.00
1461;DHT22;724;49.910;12.530;2023-07-08T10:56:39;27.00;1.00
1461;DHT22;724;49.910;12.530;2023-07-08T10:59:37;26.90;1.00
1461;DHT22;724;49.910;12.530;2023-07-08T11:05:18;27.50;1.00
1461;DHT22;724;49.910;12.530;2023-07-08T11:07:53;26.90;1.00
1461;DHT22;724;49.910;12.530;2023-07-08T11:10:31;26.30;1.00
1461;DHT22;724;49.910;12.530;2023-07-08T11:13:03;26.90;1.00
1461;DHT22;724;49.910;12.530;2023-07-08T11:15:36;27.00;1.00
1461;DHT22;724;49.910;12.530;2023-07-08T11:18:11;27.10;1.00
1461;DHT22;724;49.910;12.530;2023-07-08T11:20:50;27.80;1.00
1461;DHT22;724;49.910;12.530;2023-07-08T11:23:23;27.00;1.00
1461;DHT22;724;49.910;12.530;2023-07-08T11:25:58;26.60;1.00
1461;DHT22;724;49.910;12.530;2023-07-08T11:28:27;27.00;1.00
1461;DHT22;724;49.910;12.530;2023-07-08T11:30:56;27.30;1.00
1461;DHT22;724;49.910;12.530;2023-07-08T11:33:25;26.60;1.00
1461;DHT22;724;49.910;12.530;2023-07-08T11:35:54;27.00;1.00
1461;DHT22;724;49.910;12.530;2023-07-08T11:38:25;27.00;99.90
1461;DHT22;724;49.910;12.530;2023-07-08T11:40:55;27.10;99.90
1461;DHT22;724;49.910;12.530;2023-07-08T11:43:23;26.50;99.90
1461;DHT22;724;49.910;12.530;2023-07-08T11:45:55;26.70;99.90
1461;DHT22;724;49.910;12.530;2023-07-08T11:48:24;26.90;99.90
1461;DHT22;724;49.910;12.530;2023-07-08T11:50:53;27.50;1.00
1461;DHT22;724;49.910;12.530;2023-07-08T11:53:34;28.10;1.00
1461;DHT22;724;49.910;12.530;2023-07-08T11:56:04;28.60;1.00
1461;DHT22;724;49.910;12.530;2023-07-08T11:59:03;28.00;1.00
1461;DHT22;724;49.910;12.530;2023-07-08T12:01:37;28.10;1.00
1461;DHT22;724;49.910;12.530;2023-07-08T12:04:20;27.40;99.90
1461;DHT22;724;49.910;12.530;2023-07-08T12:07:02;27.50;99.90
1461;DHT22;724;49.910;12.530;2023-07-08T12:09:35;27.40;99.90
1461;DHT22;724;49.910;12.530;2023-07-08T12:12:07;27.70;99.90
1461;DHT22;724;49.910;12.530;2023-07-08T12:14:34;28.20;99.90
1461;DHT22;724;49.910;12.530;2023-07-08T12:17:00;28.10;99.90
1461;DHT22;724;49.910;12.530;2023-07-08T12:19:28;27.40;99.90
1461;DHT22;724;49.910;12.530;2023-07-08T12:21:58;27.40;99.90
1461;DHT22;724;49.910;12.530;2023-07-08T12:24:26;27.90;99.90
1461;DHT22;724;49.910;12.530;2023-07-08T12:26:53;28.40;99.90
1461;DHT22;724;49.910;12.530;2023-07-08T12:29:20;28.60;99.90
1461;DHT22;724;49.910;12.530;2023-07-08T12:31:46;28.20;99.90
1461;DHT22;724;49.910;12.530;2023-07-08T12:34:14;27.90;99.90
1461;DHT22;724;49.910;12.530;2023-07-08T12:36:42;28.60;99.90
1461;DHT22;724;49.910;12.530;2023-07-08T12:39:14;28.00;99.90
1461;DHT22;724;49.910;12.530;2023-07-08T12:41:42;27.70;99.90
1461;DHT22;724;49.910;12.530;2023-07-08T12:44:15;27.60;99.90
1461;DHT22;724;49.910;12.530;2023-07-08T12:46:44;28.10;99.90
1461;DHT22;724;49.910;12.530;2023-07-08T12:49:12;28.30;99.90
1461;DHT22;724;49.910;12.530;2023-07-08T12:51:42;29.00;99.90
1461;DHT22;724;49.910;12.530;2023-07-08T12:54:09;28.90;99.90
1461;DHT22;724;49.910;12.530;2023-07-08T12:56:38;29.10;99.90
1461;DHT22;724;49.910;12.530;2023-07-08T12:59:06;29.40;99.90
1461;DHT22;724;49.910;12.530;2023-07-08T13:01:34;29.00;99.90
1461;DHT22;724;49.910;12.530;2023-07-08T13:04:04;28.10;99.90
1461;DHT22;724;49.910;12.530;2023-07-08T13:06:33;28.20;99.90
1461;DHT22;724;49.910;12.530;2023-07-08T13:09:07;28.60;99.90
1461;DHT22;724;49.910;12.530;2023-07-08T13:11:34;28.20;99.90
1461;DHT22;724;49.910;12.530;2023-07-08T13:14:05;29.00;99.90
1461;DHT22;724;49.910;12.530;2023-07-08T13:16:34;29.00;99.90
1461;DHT22;724;49.910;12.530;2023-07-08T13:19:02;28.20;99.90
1461;DHT22;724;49.910;12.530;2023-07-08T13:21:30;27.90;99.90
1461;DHT22;724;49.910;12.530;2023-07-08T13:23:58;27.30;99.90
1461;DHT22;724;49.910;12.530;2023-07-08T13:26:29;27.50;99.90
1461;DHT22;724;49.910;12.530;2023-07-08T13:28:59;27.90;99.90
1461;DHT22;724;49.910;12.530;2023-07-08T13:31:32;28.50;99.90
1461;DHT22;724;49.910;12.530;2023-07-08T13:34:06;29.10;99.90
1461;DHT22;724;49.910;12.530;2023-07-08T13:36:35;29.50;99.90
1461;DHT22;724;49.910;12.530;2023-07-08T13:39:05;29.40;99.90
1461;DHT22;724;49.910;12.530;2023-07-08T13:41:34;28.90;99.90
1461;DHT22;724;49.910;12.530;2023-07-08T13:44:04;29.10;99.90
1461;DHT22;724;49.910;12.530;2023-07-08T13:46:36;28.70;99.90
1461;DHT22;724;49.910;12.530;2023-07-08T13:49:11;29.40;99.90
1461;DHT22;724;49.910;12.530;2023-07-08T13:51:38;29.30;99.90
1461;DHT22;724;49.910;12.530;2023-07-08T13:54:14;29.30;99.90
1461;DHT22;724;49.910;12.530;2023-07-08T13:56:42;29.50;99.90
1461;DHT22;724;49.910;12.530;2023-07-08T13:59:12;29.40;99.90
1461;DHT22;724;49.910;12.530;2023-07-08T14:01:43;29.50;99.90
1461;DHT22;724;49.910;12.530;2023-07-08T14:04:12;29.20;99.90
1461;DHT22;724;49.910;12.530;2023-07-08T14:06:40;29.20;99.90
1461;DHT22;724;49.910;12.530;2023-07-08T14:09:12;29.60;99.90
1461;DHT22;724;49.910;12.530;2023-07-08T14:11:39;29.40;99.90
1461;DHT22;724;49.910;12.530;2023-07-08T14:14:06;29.20;99.90
1461;DHT22;724;49.910;12.530;2023-07-08T14:16:35;29.40;99.90
1461;DHT22;724;49.910;12.530;2023-07-08T14:19:09;29.00;99.90
1461;DHT22;724;49.910;12.530;2023-07-08T14:21:38;29.20;99.90
1461;DHT22;724;49.910;12.530;2023-07-08T14:24:10;29.60;99.90
1461;DHT22;724;49.910;12.530;2023-07-08T14:26:38;30.30;99.90
1461;DHT22;724;49.910;12.530;2023-07-08T14:29:05;29.50;99.90
1461;DHT22;724;49.910;12.530;2023-07-08T14:31:32;29.90;99.90
1461;DHT22;724;49.910;12.530;2023-07-08T14:34:04;30.40;99.90
1461;DHT22;724;49.910;12.530;2023-07-08T14:36:31;30.70;99.90
1461;DHT22;724;49.910;12.530;2023-07-08T14:38:58;30.40;99.90
1461;DHT22;724;49.910;12.530;2023-07-08T14:41:26;29.80;99.90
1461;DHT22;724;49.910;12.530;2023-07-08T14:43:57;29.50;99.90
1461;DHT22;724;49.910;12.530;2023-07-08T14:46:23;28.30;99.90
1461;DHT22;724;49.910;12.530;2023-07-08T14:48:50;28.80;99.90
1461;DHT22;724;49.910;12.530;2023-07-08T14:51:18;29.50;99.90
1461;DHT22;724;49.910;12.530;2023-07-08T14:53:45;29.40;99.90
1461;DHT22;724;49.910;12.530;2023-07-08T14:56:15;29.60;99.90
1461;DHT22;724;49.910;12.530;2023-07-08T14:58:44;30.10;99.90
1461;DHT22;724;49.910;12.530;2023-07-08T15:01:17;30.50;99.90
1461;DHT22;724;49.910;12.530;2023-07-08T15:03:44;29.60;99.90
1461;DHT22;724;49.910;12.530;2023-07-08T15:06:11;29.60;99.90
1461;DHT22;724;49.910;12.530;2023-07-08T15:08:39;29.70;99.90
1461;DHT22;724;49.910;12.530;2023-07-08T15:11:09;29.20;99.90
1461;DHT22;724;49.910;12.530;2023-07-08T15:13:37;29.40;99.90
1461;DHT22;724;49.910;12.530;2023-07-08T15:16:05;29.20;99.90
1461;DHT22;724;49.910;12.530;2023-07-08T15:18:32;28.80;99.90
1461;DHT22;724;49.910;12.530;2023-07-08T15:21:00;29.00;99.90
1461;DHT22;724;49.910;12.530;2023-07-08T15:23:27;28.80;99.90
1461;DHT22;724;49.910;12.530;2023-07-08T15:25:55;29.30;99.90
1461;DHT22;724;49.910;12.530;2023-07-08T15:28:37;29.60;99.90
1461;DHT22;724;49.910;12.530;2023-07-08T15:31:08;29.50;99.90
1461;DHT22;724;49.910;12.530;2023-07-08T15:33:37;29.10;99.90
1461;DHT22;724;49.910;12.530;2023-07-08T15:36:04;29.20;99.90
1461;DHT22;724;49.910;12.530;2023-07-08T15:38:30;29.30;99.90
1461;DHT22;724;49.910;12.530;2023-07-08T15:40:59;29.70;99.90
1461;DHT22;724;49.910;12.530;2023-07-08T15:43:25;30.20;99.90
1461;DHT22;724;49.910;12.530;2023-07-08T15:45:53;30.50;99.90
1461;DHT22;724;49.910;12.530;2023-07-08T15:48:19;30.00;99.90
1461;DHT22;724;49.910;12.530;2023-07-08T15:50:46;29.50;99.90
1461;DHT22;724;49.910;12.530;2023-07-08T15:53:14;29.10;99.90
1461;DHT22;724;49.910;12.530;2023-07-08T15:55:43;29.10;99.90
1461;DHT22;724;49.910;12.530;2023-07-08T15:58:28;29.40;99.90
1461;DHT22;724;49.910;12.530;2023-07-08T16:00:57;29.80;99.90
1461;DHT22;724;49.910;12.530;2023-07-08T16:03:25;30.10;99.90
1461;DHT22;724;49.910;12.530;2023-07-08T16:05:52;30.20;99.90
1461;DHT22;724;49.910;12.530;2023-07-08T16:08:19;30.30;99.90
1461;DHT22;724;49.910;12.530;2023-07-08T16:10:50;30.30;99.90
1461;DHT22;724;49.910;12.530;2023-07-08T16:13:23;30.00;99.90
1461;DHT22;724;49.910;12.530;2023-07-08T16:15:51;29.80;99.90
1461;DHT22;724;49.910;12.530;2023-07-08T16:18:19;29.30;99.90
1461;DHT22;724;49.910;12.530;2023-07-08T16:20:46;29.40;99.90
1461;DHT22;724;49.910;12.530;2023-07-08T16:23:13;30.10;99.90